Terminal Aerodrome Forecast
Issued by NWS Charleston, SC

Home | Current Version | Previous Version | Text Only | Print | Product List | Glossary On
Versions: 1 2 3 4 5 6 7 8 9 10 11 12 13 14 15 16
000
FTUS42 KCHS 292300
TAFSAV
TAF
KSAV 292320Z 3000/3024 15005KT P6SM FEW025
     FM300800 00000KT 6SM BR FEW006 SCT015
     FM301500 12008KT P6SM SCT040=

USA.gov is the U.S. government's official web portal to all federal, state and local government web resources and services.